JAL47 RJTT-EFHK
Flight info
| Callsign | JAL47 |
|---|---|
| Flight time | N/A |
| Altitude | 35000 |
| Route | INUBO Y808 PUTER A590 POWAL/N0501F370 DCT OPAKE DCT NATES R338 MARCC DCT JUJXI DCT OMEKA/N0500F390 DCT 81N120W 82N100W 82N080W 82N060W/M085F390 82N040W 81N020W 78N000W/N0500F410 DCT VATAX DCT IBOSU Y86 LUSEP |
| Aircraft | B788/H-SDE1E2E3FGHIJ2J3J4J5M1RWXY/LB1D1 |
Departure
| Time | 2026-05-06 13:37 |
|---|---|
| Airport | Tokyo Haneda International Airport (RJTT) |
Arrival
| Time | N/A |
|---|---|
| Airport | Helsinki Vantaa Airport (EFHK) |
| Time | Latitude | Longitude | Altitude | Speed | Heading |
|---|---|---|---|---|---|
| 2026-05-06 12:38 | 35.54703 | 139.76931 | 29 ft | 0 kts | 240° |
| 2026-05-06 13:19 | 35.54709 | 139.76943 | 28 ft | 2 kts | 242° |
| 2026-05-06 13:20 | 35.54714 | 139.76958 | 28 ft | 2 kts | 245° |
| 2026-05-06 13:20 | 35.54719 | 139.76973 | 27 ft | 2 kts | 249° |
| 2026-05-06 13:20 | 35.54723 | 139.76988 | 26 ft | 2 kts | 255° |
| 2026-05-06 13:20 | 35.54725 | 139.77003 | 26 ft | 2 kts | 263° |
| 2026-05-06 13:21 | 35.54725 | 139.77017 | 26 ft | 2 kts | 273° |
| 2026-05-06 13:21 | 35.54722 | 139.77031 | 26 ft | 2 kts | 284° |
| 2026-05-06 13:21 | 35.54718 | 139.77044 | 26 ft | 2 kts | 297° |
| 2026-05-06 13:21 | 35.54711 | 139.77056 | 25 ft | 2 kts | 308° |
| 2026-05-06 13:22 | 35.54703 | 139.77065 | 24 ft | 1 kts | 316° |
| 2026-05-06 13:22 | 35.54697 | 139.77071 | 25 ft | 1 kts | 321° |
| 2026-05-06 13:22 | 35.54692 | 139.77076 | 27 ft | 1 kts | 323° |
| 2026-05-06 13:22 | 35.54687 | 139.77080 | 27 ft | 1 kts | 326° |
| 2026-05-06 13:23 | 35.54683 | 139.77083 | 26 ft | 1 kts | 327° |
| 2026-05-06 13:23 | 35.54678 | 139.77087 | 25 ft | 1 kts | 328° |
| 2026-05-06 13:23 | 35.54673 | 139.77090 | 25 ft | 1 kts | 329° |
| 2026-05-06 13:23 | 35.54671 | 139.77092 | 27 ft | 0 kts | 330° |
| 2026-05-06 13:25 | 35.54674 | 139.77090 | 25 ft | 2 kts | 330° |
| 2026-05-06 13:25 | 35.54700 | 139.77083 | 28 ft | 5 kts | 8° |
| 2026-05-06 13:25 | 35.54735 | 139.77112 | 27 ft | 8 kts | 53° |
| 2026-05-06 13:26 | 35.54769 | 139.77180 | 30 ft | 12 kts | 59° |
| 2026-05-06 13:26 | 35.54821 | 139.77286 | 29 ft | 17 kts | 62° |
| 2026-05-06 13:26 | 35.54769 | 139.77396 | 27 ft | 18 kts | 150° |
| 2026-05-06 13:26 | 35.54645 | 139.77482 | 27 ft | 24 kts | 150° |
| 2026-05-06 13:27 | 35.54501 | 139.77585 | 26 ft | 23 kts | 149° |
| 2026-05-06 13:27 | 35.54372 | 139.77678 | 27 ft | 21 kts | 149° |
| 2026-05-06 13:27 | 35.54254 | 139.77763 | 27 ft | 19 kts | 149° |
| 2026-05-06 13:27 | 35.54144 | 139.77841 | 27 ft | 18 kts | 150° |
| 2026-05-06 13:28 | 35.54034 | 139.77921 | 26 ft | 18 kts | 139° |
| 2026-05-06 13:28 | 35.54035 | 139.78013 | 29 ft | 11 kts | 60° |
| 2026-05-06 13:28 | 35.54073 | 139.78094 | 29 ft | 11 kts | 60° |
| 2026-05-06 13:28 | 35.54111 | 139.78176 | 27 ft | 11 kts | 60° |
| 2026-05-06 13:29 | 35.54152 | 139.78262 | 27 ft | 14 kts | 59° |
| 2026-05-06 13:29 | 35.54211 | 139.78387 | 28 ft | 19 kts | 60° |
| 2026-05-06 13:29 | 35.54281 | 139.78533 | 31 ft | 21 kts | 60° |
| 2026-05-06 13:29 | 35.54354 | 139.78686 | 36 ft | 21 kts | 59° |
| 2026-05-06 13:30 | 35.54427 | 139.78842 | 41 ft | 21 kts | 60° |
| 2026-05-06 13:30 | 35.54499 | 139.78993 | 45 ft | 21 kts | 59° |
| 2026-05-06 13:30 | 35.54573 | 139.79149 | 41 ft | 20 kts | 60° |
| 2026-05-06 13:30 | 35.54641 | 139.79292 | 33 ft | 19 kts | 59° |
| 2026-05-06 13:31 | 35.54705 | 139.79426 | 33 ft | 14 kts | 60° |
| 2026-05-06 13:31 | 35.54741 | 139.79503 | 33 ft | 7 kts | 60° |
| 2026-05-06 13:31 | 35.54749 | 139.79519 | 32 ft | 2 kts | 60° |
| 2026-05-06 13:31 | 35.54763 | 139.79550 | 32 ft | 7 kts | 60° |
| 2026-05-06 13:32 | 35.54796 | 139.79627 | 30 ft | 12 kts | 78° |
| 2026-05-06 13:32 | 35.54751 | 139.79703 | 30 ft | 14 kts | 149° |
| 2026-05-06 13:32 | 35.54657 | 139.79771 | 30 ft | 17 kts | 149° |
| 2026-05-06 13:32 | 35.54546 | 139.79851 | 29 ft | 19 kts | 149° |
| 2026-05-06 13:33 | 35.54433 | 139.79931 | 28 ft | 18 kts | 150° |
| 2026-05-06 13:33 | 35.54325 | 139.80008 | 27 ft | 17 kts | 150° |
| 2026-05-06 13:33 | 35.54225 | 139.80079 | 26 ft | 16 kts | 150° |
| 2026-05-06 13:33 | 35.54133 | 139.80143 | 26 ft | 15 kts | 150° |
| 2026-05-06 13:34 | 35.54043 | 139.80206 | 27 ft | 15 kts | 150° |
| 2026-05-06 13:34 | 35.53958 | 139.80267 | 30 ft | 14 kts | 149° |
| 2026-05-06 13:34 | 35.53909 | 139.80341 | 33 ft | 9 kts | 84° |
| 2026-05-06 13:34 | 35.53928 | 139.80394 | 36 ft | 5 kts | 60° |
| 2026-05-06 13:35 | 35.53944 | 139.80429 | 37 ft | 5 kts | 60° |
| 2026-05-06 13:35 | 35.53969 | 139.80467 | 39 ft | 7 kts | 35° |
| 2026-05-06 13:35 | 35.54036 | 139.80467 | 37 ft | 12 kts | 333° |
| 2026-05-06 13:35 | 35.54067 | 139.80443 | 37 ft | 1 kts | 330° |
| 2026-05-06 13:36 | 35.54159 | 139.80379 | 35 ft | 40 kts | 330° |
| 2026-05-06 13:36 | 35.54571 | 139.80088 | 33 ft | 96 kts | 330° |
| 2026-05-06 13:36 | 35.55302 | 139.79568 | 34 ft | 146 kts | 330° |
| 2026-05-06 13:36 | 35.56296 | 139.78864 | 229 ft | 171 kts | 335° |
| 2026-05-06 13:37 | 35.57337 | 139.78221 | 793 ft | 170 kts | 338° |
| 2026-05-06 13:37 | 35.58540 | 139.78014 | 1205 ft | 183 kts | 13° |
| 2026-05-06 13:37 | 35.59512 | 139.78941 | 1717 ft | 182 kts | 67° |
| 2026-05-06 13:37 | 35.59959 | 139.80453 | 2082 ft | 198 kts | 74° |
| 2026-05-06 13:38 | 35.60493 | 139.82133 | 2357 ft | 224 kts | 71° |
| 2026-05-06 13:38 | 35.61023 | 139.84028 | 2647 ft | 247 kts | 85° |
| 2026-05-06 13:38 | 35.61032 | 139.86234 | 2970 ft | 269 kts | 95° |
| 2026-05-06 13:38 | 35.60965 | 139.88540 | 3811 ft | 271 kts | 94° |
| 2026-05-06 13:39 | 35.60935 | 139.90888 | 4582 ft | 278 kts | 92° |
| 2026-05-06 13:39 | 35.61299 | 139.93230 | 5353 ft | 286 kts | 65° |
| 2026-05-06 13:39 | 35.62517 | 139.95165 | 6106 ft | 291 kts | 36° |
| 2026-05-06 13:39 | 35.64338 | 139.96191 | 6855 ft | 290 kts | 6° |
| 2026-05-06 13:40 | 35.66344 | 139.96412 | 7565 ft | 292 kts | 359° |
| 2026-05-06 13:40 | 35.68389 | 139.96524 | 8324 ft | 295 kts | 358° |
| 2026-05-06 13:40 | 35.70447 | 139.96632 | 9084 ft | 298 kts | 358° |
| 2026-05-06 13:40 | 35.72533 | 139.96767 | 9841 ft | 301 kts | 356° |
| 2026-05-06 13:41 | 35.74592 | 139.96405 | 10277 ft | 305 kts | 334° |
| 2026-05-06 13:41 | 35.76662 | 139.95431 | 10343 ft | 332 kts | 333° |
| 2026-05-06 13:41 | 35.78893 | 139.94349 | 10393 ft | 359 kts | 334° |
| 2026-05-06 13:41 | 35.81294 | 139.93223 | 10764 ft | 372 kts | 335° |
| 2026-05-06 13:42 | 35.83720 | 139.92108 | 11542 ft | 374 kts | 335° |
| 2026-05-06 13:42 | 35.86168 | 139.90959 | 12221 ft | 378 kts | 335° |
| 2026-05-06 13:42 | 35.88631 | 139.89789 | 12914 ft | 382 kts | 335° |
| 2026-05-06 13:42 | 35.91130 | 139.88611 | 13629 ft | 385 kts | 336° |
| 2026-05-06 13:43 | 35.93641 | 139.87433 | 14288 ft | 389 kts | 336° |
| 2026-05-06 13:43 | 35.96198 | 139.86295 | 14892 ft | 394 kts | 342° |
| 2026-05-06 13:43 | 35.98939 | 139.85883 | 15508 ft | 403 kts | 358° |
| 2026-05-06 13:43 | 36.01741 | 139.86381 | 16108 ft | 412 kts | 14° |
| 2026-05-06 13:44 | 36.04456 | 139.87582 | 16638 ft | 418 kts | 18° |
| 2026-05-06 13:44 | 36.07189 | 139.88865 | 17222 ft | 422 kts | 18° |
| 2026-05-06 13:44 | 36.09942 | 139.90173 | 17782 ft | 426 kts | 18° |
| 2026-05-06 13:44 | 36.12718 | 139.91472 | 18339 ft | 429 kts | 18° |
| 2026-05-06 13:45 | 36.15440 | 139.93054 | 18798 ft | 438 kts | 30° |
| 2026-05-06 13:45 | 36.19785 | 139.98497 | 19587 ft | 457 kts | 58° |
| 2026-05-06 13:45 | 36.21099 | 140.02100 | 19970 ft | 464 kts | 73° |
| 2026-05-06 13:46 | 36.21825 | 140.06012 | 20325 ft | 471 kts | 78° |
| 2026-05-06 13:46 | 36.22471 | 140.10017 | 20740 ft | 476 kts | 79° |
| 2026-05-06 13:46 | 36.23100 | 140.14061 | 21095 ft | 481 kts | 79° |
| 2026-05-06 13:46 | 36.23717 | 140.18155 | 21453 ft | 486 kts | 84° |
| 2026-05-06 13:47 | 36.23796 | 140.22342 | 21812 ft | 488 kts | 98° |
| 2026-05-06 13:47 | 36.23171 | 140.26465 | 22157 ft | 487 kts | 111° |
| 2026-05-06 13:47 | 36.21891 | 140.30333 | 22499 ft | 484 kts | 125° |
| 2026-05-06 13:47 | 36.20031 | 140.33764 | 22870 ft | 477 kts | 138° |
| 2026-05-06 13:48 | 36.17698 | 140.36620 | 23236 ft | 468 kts | 150° |
| 2026-05-06 13:48 | 36.15130 | 140.39124 | 23597 ft | 471 kts | 151° |
| 2026-05-06 13:48 | 36.12543 | 140.41616 | 23966 ft | 473 kts | 151° |
| 2026-05-06 13:48 | 36.09942 | 140.44120 | 24358 ft | 474 kts | 151° |
| 2026-05-06 13:49 | 36.07337 | 140.46641 | 24722 ft | 476 kts | 151° |
| 2026-05-06 13:49 | 36.04722 | 140.49170 | 25076 ft | 478 kts | 152° |
| 2026-05-06 13:49 | 36.02983 | 140.50845 | 25294 ft | 479 kts | 152° |
| 2026-05-06 13:49 | 36.00354 | 140.53375 | 25630 ft | 481 kts | 152° |
| 2026-05-06 13:50 | 35.97707 | 140.55921 | 25956 ft | 483 kts | 152° |
| 2026-05-06 13:50 | 35.95050 | 140.58480 | 26287 ft | 485 kts | 152° |
| 2026-05-06 13:50 | 35.92383 | 140.61045 | 26597 ft | 487 kts | 152° |
| 2026-05-06 13:50 | 35.89704 | 140.63615 | 26917 ft | 489 kts | 152° |
| 2026-05-06 13:51 | 35.87013 | 140.66195 | 27216 ft | 491 kts | 152° |
| 2026-05-06 13:51 | 35.84318 | 140.68779 | 27505 ft | 493 kts | 152° |
| 2026-05-06 13:51 | 35.81603 | 140.71380 | 27780 ft | 495 kts | 152° |
| 2026-05-06 13:51 | 35.78874 | 140.73991 | 28050 ft | 498 kts | 152° |
| 2026-05-06 13:52 | 35.76185 | 140.76724 | 28312 ft | 508 kts | 145° |
| 2026-05-06 13:52 | 35.73791 | 140.79996 | 28572 ft | 524 kts | 135° |
| 2026-05-06 13:52 | 35.71781 | 140.83807 | 28828 ft | 539 kts | 125° |
| 2026-05-06 13:52 | 35.70252 | 140.88078 | 29052 ft | 551 kts | 117° |
| 2026-05-06 13:53 | 35.68944 | 140.92530 | 29279 ft | 554 kts | 117° |
| 2026-05-06 13:53 | 35.67635 | 140.97001 | 29529 ft | 556 kts | 117° |
| 2026-05-06 13:53 | 35.66320 | 141.01472 | 29763 ft | 558 kts | 117° |
| 2026-05-06 13:53 | 35.64988 | 141.05962 | 30021 ft | 559 kts | 117° |
| 2026-05-06 13:54 | 35.63653 | 141.10464 | 30262 ft | 561 kts | 117° |
| 2026-05-06 13:54 | 35.62320 | 141.14975 | 30496 ft | 561 kts | 117° |
| 2026-05-06 13:54 | 35.60987 | 141.19475 | 30731 ft | 562 kts | 117° |
| 2026-05-06 13:54 | 35.59644 | 141.23986 | 30964 ft | 562 kts | 117° |
| 2026-05-06 13:55 | 35.58299 | 141.28495 | 31245 ft | 561 kts | 117° |
| 2026-05-06 13:55 | 35.56959 | 141.32993 | 31551 ft | 560 kts | 117° |
| 2026-05-06 13:55 | 35.55638 | 141.37420 | 31838 ft | 559 kts | 117° |
| 2026-05-06 13:55 | 35.54302 | 141.41883 | 32120 ft | 558 kts | 117° |
| 2026-05-06 13:56 | 35.52963 | 141.46348 | 32403 ft | 557 kts | 117° |
| 2026-05-06 13:56 | 35.51625 | 141.50805 | 32678 ft | 556 kts | 117° |
| 2026-05-06 13:56 | 35.50293 | 141.55240 | 32955 ft | 555 kts | 117° |
| 2026-05-06 13:56 | 35.48956 | 141.59680 | 33204 ft | 554 kts | 117° |
| 2026-05-06 13:57 | 35.47618 | 141.64115 | 33466 ft | 554 kts | 117° |
| 2026-05-06 13:57 | 35.46279 | 141.68546 | 33707 ft | 554 kts | 117° |
| 2026-05-06 13:57 | 35.45026 | 141.73022 | 33960 ft | 559 kts | 109° |
| 2026-05-06 13:57 | 35.44330 | 141.77726 | 34207 ft | 566 kts | 98° |
| 2026-05-06 13:58 | 35.44193 | 141.82579 | 34342 ft | 571 kts | 95° |
| 2026-05-06 13:58 | 35.44159 | 141.87459 | 34506 ft | 572 kts | 94° |
| 2026-05-06 13:58 | 35.44138 | 141.92345 | 34681 ft | 573 kts | 94° |
| 2026-05-06 13:58 | 35.44105 | 141.97220 | 34856 ft | 573 kts | 95° |
| 2026-05-06 13:59 | 35.44057 | 142.02108 | 35043 ft | 573 kts | 95° |
| 2026-05-06 13:59 | 35.44012 | 142.06998 | 35233 ft | 573 kts | 94° |
| 2026-05-06 13:59 | 35.43975 | 142.11890 | 35420 ft | 574 kts | 94° |
| 2026-05-06 13:59 | 35.43934 | 142.16782 | 35593 ft | 573 kts | 94° |
| 2026-05-06 14:00 | 35.43884 | 142.21660 | 35784 ft | 573 kts | 94° |
| 2026-05-06 14:00 | 35.43833 | 142.26551 | 35967 ft | 573 kts | 94° |
| 2026-05-06 14:00 | 35.43783 | 142.31442 | 36155 ft | 573 kts | 94° |
| 2026-05-06 14:00 | 35.43733 | 142.36334 | 36331 ft | 573 kts | 94° |
| 2026-05-06 14:01 | 35.43678 | 142.41213 | 36508 ft | 574 kts | 94° |
| 2026-05-06 14:01 | 35.43620 | 142.46109 | 36664 ft | 574 kts | 94° |
| 2026-05-06 14:01 | 35.43561 | 142.51006 | 36824 ft | 574 kts | 94° |
| 2026-05-06 14:01 | 35.43502 | 142.55898 | 37053 ft | 573 kts | 94° |
| 2026-05-06 14:02 | 35.43440 | 142.60784 | 37177 ft | 574 kts | 94° |
| 2026-05-06 14:02 | 35.43373 | 142.65680 | 37179 ft | 576 kts | 94° |
| 2026-05-06 14:02 | 35.43239 | 142.75485 | 37183 ft | 573 kts | 94° |
| 2026-05-06 14:03 | 35.43096 | 142.85231 | 37187 ft | 572 kts | 94° |
| 2026-05-06 14:03 | 35.42946 | 142.94984 | 37189 ft | 572 kts | 94° |
| 2026-05-06 14:04 | 35.42787 | 143.04746 | 37186 ft | 573 kts | 94° |
| 2026-05-06 14:04 | 35.42620 | 143.14509 | 37192 ft | 574 kts | 94° |
| 2026-05-06 14:05 | 35.43337 | 143.24239 | 37241 ft | 576 kts | 72° |
| 2026-05-06 14:05 | 35.44678 | 143.28863 | 37234 ft | 575 kts | 61° |
| 2026-05-06 14:05 | 35.46616 | 143.33107 | 37231 ft | 569 kts | 49° |
| 2026-05-06 14:06 | 35.49080 | 143.36858 | 37233 ft | 560 kts | 38° |
| 2026-05-06 14:06 | 35.51922 | 143.39969 | 37232 ft | 550 kts | 27° |
| 2026-05-06 14:06 | 35.58380 | 143.44861 | 37205 ft | 541 kts | 21° |
| 2026-05-06 14:07 | 35.64838 | 143.49493 | 37208 ft | 541 kts | 22° |
| 2026-05-06 14:07 | 35.71329 | 143.54198 | 37206 ft | 541 kts | 21° |
| 2026-05-06 14:08 | 35.77823 | 143.58888 | 37207 ft | 542 kts | 22° |
| 2026-05-06 14:08 | 35.84323 | 143.63608 | 37200 ft | 542 kts | 22° |
| 2026-05-06 14:09 | 35.90817 | 143.68327 | 37203 ft | 543 kts | 22° |
| 2026-05-06 14:09 | 35.97330 | 143.73071 | 37206 ft | 544 kts | 22° |
| 2026-05-06 14:10 | 36.03845 | 143.77826 | 37203 ft | 545 kts | 22° |
| 2026-05-06 14:10 | 36.10384 | 143.82607 | 37197 ft | 547 kts | 22° |
| 2026-05-06 14:11 | 36.16933 | 143.87406 | 37201 ft | 548 kts | 22° |
| 2026-05-06 14:11 | 36.23498 | 143.92225 | 37202 ft | 548 kts | 22° |
| 2026-05-06 14:12 | 36.30060 | 143.97056 | 37204 ft | 548 kts | 22° |
| 2026-05-06 14:12 | 36.36615 | 144.01892 | 37201 ft | 549 kts | 22° |
| 2026-05-06 14:13 | 36.43180 | 144.06743 | 37198 ft | 549 kts | 22° |
| 2026-05-06 14:13 | 36.49739 | 144.11601 | 37199 ft | 549 kts | 22° |
| 2026-05-06 14:14 | 36.56312 | 144.16479 | 37199 ft | 550 kts | 22° |
| 2026-05-06 14:14 | 36.62886 | 144.21368 | 37197 ft | 551 kts | 22° |
| 2026-05-06 14:15 | 36.69434 | 144.26246 | 37194 ft | 552 kts | 22° |
| 2026-05-06 14:15 | 36.76035 | 144.31174 | 37198 ft | 553 kts | 21° |
| 2026-05-06 14:16 | 36.82631 | 144.36111 | 37197 ft | 554 kts | 21° |
| 2026-05-06 14:16 | 36.89236 | 144.41077 | 37198 ft | 554 kts | 21° |
| 2026-05-06 14:17 | 36.95836 | 144.46043 | 37189 ft | 554 kts | 21° |
| 2026-05-06 14:17 | 37.02444 | 144.51029 | 37192 ft | 554 kts | 21° |
| 2026-05-06 14:18 | 37.09043 | 144.56016 | 37195 ft | 555 kts | 21° |
| 2026-05-06 14:18 | 37.15653 | 144.61023 | 37191 ft | 555 kts | 21° |
| 2026-05-06 14:19 | 37.22260 | 144.66038 | 37194 ft | 555 kts | 21° |
| 2026-05-06 14:19 | 37.28852 | 144.71051 | 37194 ft | 554 kts | 21° |
| 2026-05-06 14:20 | 37.35435 | 144.76069 | 37195 ft | 554 kts | 21° |
| 2026-05-06 14:20 | 37.42031 | 144.81105 | 37191 ft | 555 kts | 21° |
| 2026-05-06 14:21 | 37.48637 | 144.86162 | 37193 ft | 556 kts | 21° |
| 2026-05-06 14:21 | 37.55238 | 144.91225 | 37195 ft | 556 kts | 21° |
| 2026-05-06 14:22 | 37.61846 | 144.96303 | 37189 ft | 556 kts | 21° |
| 2026-05-06 14:22 | 37.68445 | 145.01385 | 37194 ft | 556 kts | 20° |
| 2026-05-06 14:23 | 37.75056 | 145.06487 | 37195 ft | 557 kts | 20° |
| 2026-05-06 14:23 | 37.81667 | 145.11600 | 37198 ft | 558 kts | 20° |
| 2026-05-06 14:24 | 37.88294 | 145.16737 | 37185 ft | 559 kts | 20° |
| 2026-05-06 14:24 | 37.94924 | 145.21887 | 37189 ft | 559 kts | 20° |
| 2026-05-06 14:25 | 38.01545 | 145.27041 | 37193 ft | 559 kts | 20° |
| 2026-05-06 14:25 | 38.08130 | 145.32178 | 37189 ft | 559 kts | 20° |
| 2026-05-06 14:26 | 38.14793 | 145.37387 | 37193 ft | 559 kts | 20° |
| 2026-05-06 14:26 | 38.21376 | 145.42544 | 37192 ft | 559 kts | 20° |
| 2026-05-06 14:27 | 38.27995 | 145.47740 | 37186 ft | 560 kts | 20° |
| 2026-05-06 14:27 | 38.34484 | 145.53341 | 37210 ft | 576 kts | 33° |
| 2026-05-06 14:28 | 38.40419 | 145.60310 | 37192 ft | 581 kts | 33° |
| 2026-05-06 14:28 | 38.46358 | 145.67319 | 37193 ft | 581 kts | 33° |
| 2026-05-06 14:29 | 38.52295 | 145.74329 | 37190 ft | 582 kts | 33° |
| 2026-05-06 14:29 | 38.58235 | 145.81377 | 37193 ft | 582 kts | 33° |
| 2026-05-06 14:30 | 38.64181 | 145.88431 | 37192 ft | 583 kts | 33° |
| 2026-05-06 14:30 | 38.70117 | 145.95505 | 37188 ft | 584 kts | 33° |
| 2026-05-06 14:31 | 38.76058 | 146.02590 | 37194 ft | 585 kts | 33° |
| 2026-05-06 14:31 | 38.82013 | 146.09717 | 37188 ft | 586 kts | 33° |
| 2026-05-06 14:32 | 38.87978 | 146.16868 | 37183 ft | 587 kts | 33° |
| 2026-05-06 14:32 | 38.93933 | 146.24027 | 37187 ft | 587 kts | 33° |
| 2026-05-06 14:33 | 38.99890 | 146.31205 | 37190 ft | 587 kts | 33° |
| 2026-05-06 14:33 | 39.05837 | 146.38387 | 37185 ft | 587 kts | 33° |
| 2026-05-06 14:34 | 39.11786 | 146.45591 | 37190 ft | 587 kts | 34° |
| 2026-05-06 14:34 | 39.17733 | 146.52809 | 37189 ft | 587 kts | 34° |
| 2026-05-06 14:35 | 39.23671 | 146.60033 | 37190 ft | 588 kts | 34° |
| 2026-05-06 14:35 | 39.29615 | 146.67284 | 37192 ft | 588 kts | 34° |
| 2026-05-06 14:36 | 39.35506 | 146.74486 | 37188 ft | 587 kts | 34° |
| 2026-05-06 14:36 | 39.41436 | 146.81755 | 37189 ft | 587 kts | 34° |
| 2026-05-06 14:37 | 39.47338 | 146.89009 | 37188 ft | 585 kts | 34° |
| 2026-05-06 14:37 | 39.53229 | 146.96262 | 37190 ft | 583 kts | 35° |
| 2026-05-06 14:38 | 39.58107 | 147.02284 | 37187 ft | 583 kts | 35° |
| 2026-05-06 14:38 | 39.63976 | 147.09547 | 37182 ft | 582 kts | 35° |
| 2026-05-06 14:39 | 39.69824 | 147.16801 | 37183 ft | 581 kts | 35° |
| 2026-05-06 14:39 | 39.75656 | 147.24053 | 37184 ft | 579 kts | 36° |
| 2026-05-06 14:40 | 39.81460 | 147.31287 | 37192 ft | 576 kts | 36° |
| 2026-05-06 14:40 | 39.87229 | 147.38496 | 37187 ft | 574 kts | 36° |
| 2026-05-06 14:41 | 39.92975 | 147.45693 | 37183 ft | 571 kts | 36° |
| 2026-05-06 14:41 | 39.98689 | 147.52868 | 37181 ft | 569 kts | 37° |
| 2026-05-06 14:42 | 40.04363 | 147.60010 | 37187 ft | 566 kts | 37° |
| 2026-05-06 14:42 | 40.10012 | 147.67138 | 37182 ft | 564 kts | 37° |
| 2026-05-06 14:43 | 40.15645 | 147.74263 | 37182 ft | 563 kts | 37° |
| 2026-05-06 14:43 | 40.21266 | 147.81389 | 37187 ft | 562 kts | 37° |
| 2026-05-06 14:44 | 40.26866 | 147.88508 | 37183 ft | 561 kts | 37° |
| 2026-05-06 14:45 | 40.35244 | 147.99190 | 37179 ft | 559 kts | 38° |
| 2026-05-06 14:45 | 40.40797 | 148.06291 | 37178 ft | 557 kts | 38° |
| 2026-05-06 14:46 | 40.46336 | 148.13391 | 37179 ft | 555 kts | 38° |
| 2026-05-06 14:46 | 40.51845 | 148.20471 | 37176 ft | 553 kts | 38° |
| 2026-05-06 14:47 | 40.57337 | 148.27546 | 37176 ft | 552 kts | 38° |
| 2026-05-06 14:47 | 40.62803 | 148.34604 | 37176 ft | 550 kts | 38° |
| 2026-05-06 14:48 | 40.68264 | 148.41672 | 37177 ft | 550 kts | 38° |
| 2026-05-06 14:48 | 40.73709 | 148.48738 | 37175 ft | 550 kts | 38° |
| 2026-05-06 14:49 | 40.79155 | 148.55821 | 37170 ft | 549 kts | 39° |
| 2026-05-06 14:49 | 40.84585 | 148.62901 | 37167 ft | 548 kts | 39° |
| 2026-05-06 14:50 | 40.89993 | 148.69970 | 37172 ft | 547 kts | 39° |
| 2026-05-06 14:50 | 40.95393 | 148.77045 | 37168 ft | 546 kts | 39° |
| 2026-05-06 14:51 | 41.00773 | 148.84112 | 37168 ft | 545 kts | 39° |
| 2026-05-06 14:51 | 41.06147 | 148.91187 | 37170 ft | 544 kts | 39° |
| 2026-05-06 14:52 | 41.11507 | 148.98263 | 37164 ft | 543 kts | 39° |
| 2026-05-06 14:52 | 41.16840 | 149.05328 | 37161 ft | 542 kts | 39° |
| 2026-05-06 14:53 | 41.22161 | 149.12390 | 37161 ft | 541 kts | 40° |
| 2026-05-06 14:53 | 41.27474 | 149.19461 | 37161 ft | 540 kts | 40° |
| 2026-05-06 14:54 | 41.32740 | 149.26485 | 37157 ft | 539 kts | 40° |
| 2026-05-06 14:54 | 41.38017 | 149.33541 | 37154 ft | 537 kts | 40° |
| 2026-05-06 14:55 | 41.43289 | 149.40607 | 37150 ft | 537 kts | 40° |
| 2026-05-06 14:55 | 41.48545 | 149.47670 | 37134 ft | 537 kts | 40° |
| 2026-05-06 14:56 | 41.53799 | 149.54747 | 37138 ft | 536 kts | 40° |
| 2026-05-06 14:56 | 41.59043 | 149.61828 | 37152 ft | 536 kts | 40° |
| 2026-05-06 14:57 | 41.64287 | 149.68925 | 37143 ft | 536 kts | 40° |
| 2026-05-06 14:57 | 41.69517 | 149.76022 | 37146 ft | 536 kts | 40° |
| 2026-05-06 14:58 | 41.74746 | 149.83136 | 37137 ft | 535 kts | 41° |